Time;durP1;ratioP1;P1;durP2;ratioP2;P2;SDS_P1;SDS_P2;PMS_P1;PMS_P2;Temp;Humidity;BMP_temperature;BMP_pressure;BME280_temperature;BME280_humidity;BME280_pressure;Samples;Min_cycle;Max_cycle;Signal;HPM_P1;HPM_P2
2021/04/23 00:01:08;;;;;;;23.55;15.88;;;;;;;8.54;92.98;99260.11;1754163;81;21591;-66
2021/04/23 00:03:49;;;;;;;21.85;15.43;;;;;;;8.53;92.92;99258.48;1754231;81;20954;-66
2021/04/23 00:06:34;;;;;;;15.83;12.43;;;;;;;8.49;92.93;99266.25;1754229;81;21196;-67
2021/04/23 00:09:20;;;;;;;20.97;13.95;;;;;;;8.47;92.89;99268.48;1754228;81;21635;-66
2021/04/23 00:11:58;;;;;;;22.05;14.47;;;;;;;8.40;92.92;99267.54;1754196;80;21540;-67
2021/04/23 00:14:34;;;;;;;19.75;14.40;;;;;;;8.34;93.07;99263.30;1754153;81;20930;-66
2021/04/23 00:17:01;;;;;;;24.50;14.95;;;;;;;8.29;93.14;99266.12;1754231;81;21064;-66
2021/04/23 00:19:30;;;;;;;21.17;14.40;;;;;;;8.25;93.38;99263.19;1754185;80;21362;-66
2021/04/23 00:21:59;;;;;;;19.35;14.70;;;;;;;8.24;93.58;99264.86;1754093;81;21084;-66
2021/04/23 00:24:26;;;;;;;19.35;13.62;;;;;;;8.21;93.73;99267.65;1754132;81;21081;-66
2021/04/23 00:26:54;;;;;;;18.15;13.58;;;;;;;8.20;93.86;99264.66;1754245;81;21567;-67
2021/04/23 00:29:21;;;;;;;18.15;13.48;;;;;;;8.21;93.95;99272.31;1754141;81;21595;-67
2021/04/23 00:31:50;;;;;;;18.62;12.13;;;;;;;8.21;94.05;99275.85;1754161;81;21370;-66
2021/04/23 00:34:18;;;;;;;14.15;10.98;;;;;;;8.23;94.24;99271.44;1754069;81;20946;-66
2021/04/23 00:36:45;;;;;;;14.85;11.80;;;;;;;8.23;94.31;99276.36;1754892;81;21510;-66
2021/04/23 00:39:13;;;;;;;16.93;11.12;;;;;;;8.25;94.47;99281.52;1757181;81;21112;-66
2021/04/23 00:41:40;;;;;;;13.80;10.25;;;;;;;8.27;94.47;99280.66;1758006;81;21200;-66
2021/04/23 00:44:08;;;;;;;15.85;12.00;;;;;;;8.28;94.44;99282.27;1754142;81;21293;-67
2021/04/23 00:46:37;;;;;;;17.50;12.35;;;;;;;8.27;94.40;99282.83;1754172;81;21500;-67
2021/04/23 00:49:06;;;;;;;14.73;11.20;;;;;;;8.26;94.35;99281.77;1763771;81;21121;-67
2021/04/23 00:51:40;;;;;;;13.45;10.53;;;;;;;8.26;94.25;99277.11;1764912;80;20967;-67
2021/04/23 00:54:08;;;;;;;13.62;10.55;;;;;;;8.25;94.06;99281.52;1764946;80;21489;-67
2021/04/23 00:56:39;;;;;;;14.93;11.03;;;;;;;8.21;93.98;99273.12;1764947;81;21211;-67
2021/04/23 00:59:09;;;;;;;12.82;10.08;;;;;;;8.19;93.75;99276.72;1764962;81;20939;-67
2021/04/23 01:01:59;;;;;;;16.27;10.68;;;;;;;8.15;93.46;99277.08;1764851;81;20959;-66
2021/04/23 01:04:29;;;;;;;15.55;11.00;;;;;;;8.12;93.23;99282.34;1764935;81;20927;-66
2021/04/23 01:06:57;;;;;;;14.50;11.00;;;;;;;8.05;92.96;99293.72;1765022;81;21478;-66
2021/04/23 01:09:28;;;;;;;17.20;11.73;;;;;;;8.00;92.93;99292.46;1764922;81;21199;-65
2021/04/23 01:11:56;;;;;;;14.40;11.03;;;;;;;7.94;92.97;99298.59;1764790;81;20991;-65
2021/04/23 01:14:23;;;;;;;17.57;12.55;;;;;;;7.89;93.01;99300.05;1764946;80;21486;-65
2021/04/23 01:16:52;;;;;;;17.42;11.63;;;;;;;7.86;93.04;99302.58;1764861;81;21604;-65
2021/04/23 01:19:23;;;;;;;17.50;12.85;;;;;;;7.84;93.23;99305.62;1764987;81;21061;-65
2021/04/23 01:21:51;;;;;;;18.07;12.88;;;;;;;7.83;93.37;99312.75;1765045;80;21376;-65
2021/04/23 01:24:19;;;;;;;18.10;13.65;;;;;;;7.81;93.46;99312.25;1764866;81;20943;-65
2021/04/23 01:26:51;;;;;;;16.55;12.53;;;;;;;7.80;93.68;99312.80;1764864;81;21147;-64
2021/04/23 01:29:20;;;;;;;20.57;14.18;;;;;;;7.79;93.77;99311.19;1765131;81;21053;-65
2021/04/23 01:31:51;;;;;;;18.25;13.70;;;;;;;7.79;93.87;99305.72;1767656;80;21481;-67
2021/04/23 01:34:29;;;;;;;;;;;;;;;7.79;94.03;99316.65;1768886;80;21362;-66
2021/04/23 01:36:59;;;;;;;19.25;12.50;;;;;;;7.77;94.08;99324.89;1764801;80;20231;-66
2021/04/23 01:39:29;;;;;;;20.70;13.48;;;;;;;7.77;94.35;99320.80;1764841;81;21105;-66
2021/04/23 01:41:56;;;;;;;20.50;14.63;;;;;;;7.74;94.37;99323.58;1764808;81;20995;-65
2021/04/23 01:44:25;;;;;;;20.92;13.65;;;;;;;7.72;94.35;99328.53;1764845;81;21141;-65
2021/04/23 01:46:53;;;;;;;18.48;14.00;;;;;;;7.72;94.48;99330.45;1764875;80;22330;-65
2021/04/23 01:49:21;;;;;;;22.02;14.73;;;;;;;7.71;94.46;99324.73;1764693;81;20998;-65
2021/04/23 01:51:53;;;;;;;21.05;15.15;;;;;;;7.71;94.53;99327.47;1764875;81;20979;-65
2021/04/23 01:54:21;;;;;;;18.15;14.20;;;;;;;7.70;94.67;99337.59;1765138;81;20927;-66
2021/04/23 01:56:48;;;;;;;19.30;12.35;;;;;;;7.68;94.59;99349.93;1764877;81;21054;-66
2021/04/23 01:59:17;;;;;;;19.20;11.50;;;;;;;7.58;92.51;99353.66;1764832;81;21371;-66
2021/04/23 02:01:44;;;;;;;17.27;10.60;;;;;;;7.43;90.91;99359.41;1768256;80;20986;-66
2021/04/23 02:04:14;;;;;;;17.67;10.95;;;;;;;7.25;90.24;99372.80;1767730;80;20987;-66
2021/04/23 02:06:45;;;;;;;13.60;8.98;;;;;;;7.12;90.50;99377.66;1764924;80;21026;-66
2021/04/23 02:09:12;;;;;;;11.50;7.70;;;;;;;6.98;89.41;99384.97;1764861;80;21152;-66
2021/04/23 02:11:42;;;;;;;14.40;7.75;;;;;;;6.86;87.96;99400.45;1764789;80;21201;-66
2021/04/23 02:14:11;;;;;;;16.52;7.12;;;;;;;6.53;85.05;99406.89;1764888;81;21192;-66
2021/04/23 02:16:40;;;;;;;10.80;6.08;;;;;;;6.53;85.05;99406.89;1764797;80;20895;-67
2021/04/23 02:19:10;;;;;;;12.55;6.00;;;;;;;6.36;84.41;99406.01;1764816;81;20967;-67
2021/04/23 02:21:38;;;;;;;14.53;7.50;;;;;;;6.20;84.01;99404.05;1764892;80;21065;-67
2021/04/23 02:24:07;;;;;;;16.97;7.10;;;;;;;6.04;84.74;99409.95;1764938;81;22127;-66
2021/04/23 02:26:38;;;;;;;12.13;7.15;;;;;;;5.89;84.43;99406.83;1764794;81;21164;-66
2021/04/23 02:29:12;;;;;;;9.85;7.08;;;;;;;5.76;85.61;99404.23;1764807;81;20884;-67
2021/04/23 02:31:43;;;;;;;12.40;6.80;;;;;;;5.67;85.52;99410.59;1764852;81;20900;-66
2021/04/23 02:34:14;;;;;;;11.83;6.42;;;;;;;5.58;86.32;99416.65;1764869;81;20916;-66
2021/04/23 02:36:41;;;;;;;13.10;6.15;;;;;;;5.50;85.98;99419.98;1764887;81;21341;-66
2021/04/23 02:39:12;;;;;;;10.72;6.00;;;;;;;5.39;86.19;99409.47;1764776;81;20943;-66
2021/04/23 02:41:41;;;;;;;14.23;7.50;;;;;;;5.40;86.52;99421.98;1764922;81;21501;-67
2021/04/23 02:44:08;;;;;;;13.50;6.95;;;;;;;5.37;86.74;99417.10;1764907;81;21505;-66
2021/04/23 02:46:36;;;;;;;13.70;6.90;;;;;;;5.37;86.74;99417.10;1764907;81;21050;-67
2021/04/23 02:49:06;;;;;;;15.35;7.37;;;;;;;5.37;86.26;99419.27;1759462;81;21384;-66
2021/04/23 02:51:44;;;;;;;14.30;7.67;;;;;;;5.35;86.63;99423.38;1756149;81;20985;-66
2021/04/23 02:54:12;;;;;;;13.10;7.42;;;;;;;5.33;87.00;99426.38;1755610;81;21045;-67
2021/04/23 02:56:40;;;;;;;13.50;7.00;;;;;;;5.25;87.17;99431.07;1750139;81;21073;-67
2021/04/23 02:59:09;;;;;;;11.83;7.22;;;;;;;5.25;87.17;99431.07;1761333;79;21075;-67
2021/04/23 03:01:42;;;;;;;9.40;5.90;;;;;;;5.21;87.54;99430.83;1758274;81;21290;-65
2021/04/23 03:04:10;;;;;;;12.70;6.50;;;;;;;5.20;87.96;99428.42;1756579;81;20997;-65
2021/04/23 03:06:38;;;;;;;12.55;6.50;;;;;;;5.15;88.32;99419.73;1761597;81;21139;-66
2021/04/23 03:09:06;;;;;;;11.38;6.55;;;;;;;5.09;88.78;99423.59;1761997;81;21518;-66
2021/04/23 03:11:35;;;;;;;13.93;7.60;;;;;;;5.02;89.70;99434.52;1761824;81;21558;-66
2021/04/23 03:14:04;;;;;;;12.75;7.83;;;;;;;4.97;90.12;99429.92;1761666;81;21162;-66
2021/04/23 03:16:32;;;;;;;21.37;7.42;;;;;;;4.97;90.12;99429.92;1761877;81;21193;-66
2021/04/23 03:19:00;;;;;;;12.03;7.62;;;;;;;4.99;90.63;99441.34;1761923;81;21060;-67
2021/04/23 03:21:30;;;;;;;10.70;7.08;;;;;;;4.98;91.19;99435.63;1761636;81;21163;-69
2021/04/23 03:23:58;;;;;;;15.45;6.80;;;;;;;4.98;91.19;99435.63;1762135;81;21084;-68
2021/04/23 03:26:27;;;;;;;10.13;5.95;;;;;;;4.98;91.24;99434.27;1762404;81;22115;-68
2021/04/23 03:28:55;;;;;;;12.18;6.42;;;;;;;4.98;91.28;99435.63;1762309;81;21036;-68
2021/04/23 03:31:23;;;;;;;15.60;7.00;;;;;;;4.99;91.34;99437.26;1762328;81;21123;-68
2021/04/23 03:33:50;;;;;;;13.75;7.17;;;;;;;4.99;91.34;99437.26;1760039;81;21054;-68
2021/04/23 03:36:18;;;;;;;15.32;6.95;;;;;;;4.98;91.44;99441.89;1756179;81;21502;-67
2021/04/23 03:38:47;;;;;;;15.85;6.78;;;;;;;4.95;91.42;99447.89;1726425;81;21213;-67
2021/04/23 03:41:29;;;;;;;11.85;7.17;;;;;;;4.96;91.34;99452.78;1756122;81;21021;-68
2021/04/23 03:43:57;;;;;;;9.73;6.20;;;;;;;4.95;91.00;99450.61;1756276;81;21480;-68
2021/04/23 03:46:24;;;;;;;12.55;6.55;;;;;;;4.93;91.15;99448.72;1756138;81;21180;-66
2021/04/23 03:48:52;;;;;;;17.15;7.42;;;;;;;4.92;91.07;99451.17;1755254;80;21571;-66
2021/04/23 03:51:20;;;;;;;10.75;6.10;;;;;;;4.93;91.17;99452.80;1753365;81;21204;-67
2021/04/23 03:53:48;;;;;;;13.20;6.90;;;;;;;4.95;91.29;99449.80;1753801;81;21073;-69
2021/04/23 03:56:17;;;;;;;10.85;5.97;;;;;;;4.97;91.30;99455.77;1753943;81;21049;-69
2021/04/23 03:58:45;;;;;;;11.43;6.55;;;;;;;5.00;91.06;99467.45;1753893;81;21119;-76
2021/04/23 04:01:20;;;;;;;10.35;6.08;;;;;;;5.00;91.06;99467.45;1753420;81;21124;-65
2021/04/23 04:03:48;;;;;;;11.63;6.97;;;;;;;5.01;91.29;99459.55;1754142;81;21336;-65
2021/04/23 04:06:16;;;;;;;11.20;6.47;;;;;;;5.07;91.38;99463.06;1754087;81;20942;-63
2021/04/23 04:08:45;;;;;;;14.00;6.62;;;;;;;5.09;91.34;99455.43;1754176;81;21560;-63
2021/04/23 04:11:14;;;;;;;13.50;6.67;;;;;;;5.11;91.25;99456.77;1753983;81;20970;-67
2021/04/23 04:13:43;;;;;;;9.20;5.97;;;;;;;5.17;91.31;99462.45;1730485;81;21504;-64
2021/04/23 04:16:12;;;;;;;13.05;5.95;;;;;;;5.20;91.09;99453.69;1755498;81;21198;-63
2021/04/23 04:18:40;;;;;;;14.73;6.33;;;;;;;5.23;91.14;99457.75;1728525;81;21517;-63
2021/04/23 04:21:08;;;;;;;11.63;6.40;;;;;;;5.26;90.83;99466.72;1754071;81;21010;-63
2021/04/23 04:23:36;;;;;;;11.90;6.78;;;;;;;5.29;90.88;99471.05;1754045;81;21109;-64
2021/04/23 04:26:04;;;;;;;11.90;6.30;;;;;;;5.35;90.95;99475.09;1754174;80;21644;-64
2021/04/23 04:28:33;;;;;;;11.45;6.47;;;;;;;5.35;90.35;99479.19;1754170;81;22348;-63
2021/04/23 04:31:01;;;;;;;13.62;6.33;;;;;;;5.35;90.36;99479.99;1754043;81;21077;-64
2021/04/23 04:33:30;;;;;;;13.62;6.53;;;;;;;5.38;90.35;99489.50;1750394;81;20969;-63
2021/04/23 04:35:58;;;;;;;11.33;5.85;;;;;;;5.38;90.35;99489.50;1754035;81;21073;-64
2021/04/23 04:38:27;;;;;;;12.65;6.10;;;;;;;5.41;90.67;99493.02;1754090;81;21544;-63
2021/04/23 04:40:56;;;;;;;9.85;5.90;;;;;;;5.44;90.65;99490.55;1754120;81;21373;-62
2021/04/23 04:43:24;;;;;;;12.00;5.60;;;;;;;5.50;90.67;99492.69;1754099;81;21124;-63
2021/04/23 04:45:51;;;;;;;9.58;6.10;;;;;;;5.55;90.41;99494.83;1754742;81;21042;-63
2021/04/23 04:48:21;;;;;;;16.97;6.45;;;;;;;5.60;90.40;99495.34;1756506;80;21500;-63
2021/04/23 04:50:52;;;;;;;14.75;6.33;;;;;;;5.65;90.42;99491.21;1753316;81;21068;-64
2021/04/23 04:53:19;;;;;;;11.33;6.28;;;;;;;5.67;89.65;99499.91;1754116;81;21316;-63
2021/04/23 04:55:50;;;;;;;14.43;7.65;;;;;;;5.68;89.12;99498.00;1753960;81;20942;-63
2021/04/23 04:58:22;;;;;;;11.12;6.58;;;;;;;5.69;88.76;99500.98;1754176;81;21084;-61
2021/04/23 05:00:49;;;;;;;11.80;6.10;;;;;;;5.71;88.91;99503.70;1754277;81;21080;-64
2021/04/23 05:03:17;;;;;;;12.40;6.40;;;;;;;5.77;88.69;99505.28;1753367;81;22052;-64
2021/04/23 05:05:45;;;;;;;9.78;5.30;;;;;;;5.79;88.04;99501.69;1734046;81;21612;-65
2021/04/23 05:08:13;;;;;;;9.60;5.62;;;;;;;5.81;88.10;99503.58;1729215;83;21037;-66
2021/04/23 05:10:40;;;;;;;15.80;6.58;;;;;;;5.83;87.81;99504.66;1729594;83;21108;-64
2021/04/23 05:13:08;;;;;;;9.20;6.10;;;;;;;5.87;86.99;99505.16;1729401;83;21088;-64
2021/04/23 05:15:37;;;;;;;11.08;6.55;;;;;;;5.87;87.77;99510.62;1729549;83;21174;-63
2021/04/23 05:18:05;;;;;;;10.90;5.70;;;;;;;5.94;87.39;99511.13;1729638;83;21210;-64
2021/04/23 05:20:34;;;;;;;11.60;6.37;;;;;;;5.94;87.39;99511.13;1729323;81;21167;-64
2021/04/23 05:23:02;;;;;;;9.55;5.08;;;;;;;5.99;86.64;99514.36;1729657;83;21159;-63
2021/04/23 05:25:31;;;;;;;8.83;4.67;;;;;;;6.03;86.33;99518.14;1728597;83;21104;-65
2021/04/23 05:27:58;;;;;;;12.55;5.55;;;;;;;6.16;86.52;99509.84;1729324;83;21159;-77
2021/04/23 05:30:29;;;;;;;11.28;5.15;;;;;;;6.16;86.52;99509.84;1729475;83;22931;-77
2021/04/23 05:32:58;;;;;;;10.15;5.28;;;;;;;6.29;86.31;99518.72;1729315;83;21151;-73
2021/04/23 05:35:28;;;;;;;9.43;4.90;;;;;;;6.40;85.03;99516.12;1729524;83;20937;-91
2021/04/23 05:37:56;;;;;;;8.73;4.50;;;;;;;6.40;85.03;99516.12;1729356;83;21135;-70
2021/04/23 05:40:29;;;;;;;8.53;4.65;;;;;;;6.44;83.02;99522.63;1729472;82;21174;-70
2021/04/23 05:42:57;;;;;;;9.78;4.80;;;;;;;6.40;82.80;99517.48;1729742;83;21384;-76
2021/04/23 05:45:26;;;;;;;8.75;4.65;;;;;;;6.47;83.28;99523.41;1738405;81;21127;-76
2021/04/23 05:47:54;;;;;;;9.18;5.22;;;;;;;6.55;82.03;99520.05;1754818;81;21116;-72
2021/04/23 05:50:22;;;;;;;8.30;4.37;;;;;;;6.55;81.41;99524.14;1774973;80;21160;-75
2021/04/23 05:52:50;;;;;;;11.05;4.60;;;;;;;6.52;81.23;99525.27;1779362;80;21205;-74
2021/04/23 05:55:20;;;;;;;9.18;4.80;;;;;;;6.60;82.55;99515.91;1780328;80;21375;-76
2021/04/23 05:57:49;;;;;;;10.25;5.25;;;;;;;6.60;82.55;99515.91;1780816;80;21180;-63
2021/04/23 06:00:19;;;;;;;12.75;5.40;;;;;;;6.70;82.25;99511.43;1780738;80;21180;-67
2021/04/23 06:02:48;;;;;;;8.18;5.00;;;;;;;6.78;81.19;99510.79;1780412;80;21222;-69
2021/04/23 06:05:18;;;;;;;9.80;5.25;;;;;;;6.80;81.57;99509.39;1757166;80;21133;-66
2021/04/23 06:07:45;;;;;;;10.48;4.80;;;;;;;6.84;81.81;99511.80;1781574;80;21263;-66
2021/04/23 06:10:15;;;;;;;9.25;4.47;;;;;;;6.93;81.47;99519.57;1781706;80;21010;-65
2021/04/23 06:12:43;;;;;;;8.20;4.42;;;;;;;6.99;79.99;99519.51;1781756;80;21107;-69
2021/04/23 06:15:14;;;;;;;8.23;4.20;;;;;;;6.95;79.96;99515.19;1781756;80;21545;-65
2021/04/23 06:17:41;;;;;;;8.68;4.55;;;;;;;6.99;80.39;99517.59;1781890;80;21606;-75
2021/04/23 06:20:14;;;;;;;7.47;4.55;;;;;;;7.07;80.15;99521.59;1778718;80;21263;-77
2021/04/23 06:22:41;;;;;;;8.10;3.80;;;;;;;7.10;79.27;99516.91;1776165;80;21046;-78
2021/04/23 06:25:11;;;;;;;5.80;3.58;;;;;;;7.15;80.22;99518.20;1772754;81;21486;-75
2021/04/23 06:27:40;;;;;;;11.08;3.87;;;;;;;7.20;79.02;99518.95;1772695;80;21077;-70
2021/04/23 06:30:12;;;;;;;10.68;4.60;;;;;;;7.26;78.66;99525.97;1772799;81;21073;-76
2021/04/23 06:32:43;;;;;;;9.58;5.20;;;;;;;7.36;78.23;99532.39;1772819;81;21481;-75
2021/04/23 06:35:12;;;;;;;9.65;4.60;;;;;;;7.42;77.80;99533.39;1772583;80;21172;-81
2021/04/23 06:37:42;;;;;;;7.05;4.70;;;;;;;7.47;77.15;99532.51;1772687;80;21070;-70
2021/04/23 06:40:11;;;;;;;8.73;4.20;;;;;;;7.48;76.74;99532.22;1772756;81;21492;-70
2021/04/23 06:42:40;;;;;;;7.35;4.05;;;;;;;7.54;76.68;99529.64;1772694;80;21106;-82
2021/04/23 06:45:12;;;;;;;8.20;4.00;;;;;;;7.59;76.78;99537.76;1772580;80;21478;-72
2021/04/23 06:47:39;;;;;;;6.90;3.98;;;;;;;7.58;76.20;99544.33;1772261;80;28743;-73
2021/04/23 06:50:10;;;;;;;8.75;3.85;;;;;;;7.57;76.59;99546.80;1748721;81;21073;-70
2021/04/23 06:52:38;;;;;;;8.93;4.58;;;;;;;7.53;74.97;99545.77;1774164;80;21489;-71
2021/04/23 06:55:08;;;;;;;11.30;5.67;;;;;;;7.42;75.25;99554.43;1776070;80;21141;-72
2021/04/23 06:57:36;;;;;;;12.63;5.25;;;;;;;7.34;75.38;99553.72;1772709;81;21206;-72
2021/04/23 07:00:13;;;;;;;8.75;3.67;;;;;;;7.25;76.18;99550.28;1772594;80;21026;-72
2021/04/23 07:02:40;;;;;;;10.13;3.92;;;;;;;7.21;75.56;99548.43;1772727;81;21045;-72
2021/04/23 07:05:10;;;;;;;7.33;3.83;;;;;;;7.21;75.99;99552.52;1772763;81;21469;-71
2021/04/23 07:07:38;;;;;;;7.67;3.90;;;;;;;7.25;75.66;99549.47;1772619;80;21061;-68
2021/04/23 07:10:09;;;;;;;10.55;3.40;;;;;;;7.32;75.98;99553.20;1778255;80;21362;-72
2021/04/23 07:12:36;;;;;;;7.37;3.62;;;;;;;7.37;75.51;99543.58;1772854;80;21148;-73
2021/04/23 07:15:06;;;;;;;7.87;4.12;;;;;;;7.45;75.73;99547.02;1772634;81;20990;-71
2021/04/23 07:17:33;;;;;;;10.05;4.00;;;;;;;7.57;76.27;99548.72;1772677;81;20998;-71
2021/04/23 07:20:04;;;;;;;5.42;3.47;;;;;;;7.75;76.09;99534.24;1766790;81;21152;-71
2021/04/23 07:22:32;;;;;;;5.95;3.80;;;;;;;7.97;75.49;99541.01;1772784;80;22281;-72
2021/04/23 07:25:00;;;;;;;15.60;5.10;;;;;;;8.11;74.51;99541.28;1772578;81;20950;-72
2021/04/23 07:27:28;;;;;;;7.75;4.03;;;;;;;8.26;74.51;99541.02;1772676;81;20966;-70
2021/04/23 07:29:55;;;;;;;5.35;3.42;;;;;;;8.44;72.75;99535.27;1772664;81;21125;-71
2021/04/23 07:32:23;;;;;;;10.23;3.47;;;;;;;8.56;71.36;99531.48;1772788;81;21128;-71
2021/04/23 07:34:51;;;;;;;8.30;3.80;;;;;;;8.68;70.20;99541.91;1772929;81;21196;-70
2021/04/23 07:37:18;;;;;;;6.17;3.80;;;;;;;8.73;70.23;99540.44;1772783;81;21062;-68
2021/04/23 07:39:46;;;;;;;6.37;3.33;;;;;;;8.75;70.58;99544.23;1772859;81;21584;-68
2021/04/23 07:42:14;;;;;;;11.10;4.20;;;;;;;8.80;69.41;99534.56;1772837;81;21101;-66
2021/04/23 07:44:41;;;;;;;9.23;3.67;;;;;;;8.85;69.06;99531.72;1772882;81;21057;-70
2021/04/23 07:47:09;;;;;;;7.97;3.80;;;;;;;8.89;69.45;99530.00;1772862;80;21270;-68
2021/04/23 07:49:38;;;;;;;10.45;4.78;;;;;;;9.06;69.20;99536.22;1771511;80;21086;-67
2021/04/23 07:52:07;;;;;;;6.05;3.62;;;;;;;9.23;69.56;99525.45;1772493;80;21493;-68
2021/04/23 07:54:36;;;;;;;8.18;3.60;;;;;;;9.35;68.04;99527.63;1775524;79;21125;-71
2021/04/23 07:57:05;;;;;;;6.45;3.80;;;;;;;9.53;68.06;99526.67;1776367;80;21096;-73
2021/04/23 07:59:32;;;;;;;7.65;4.15;;;;;;;9.75;66.14;99523.97;1769000;80;21205;-70
2021/04/23 08:02:02;;;;;;;7.62;3.90;;;;;;;9.92;64.85;99521.33;1770548;79;21092;-69
2021/04/23 08:04:32;;;;;;;9.08;4.75;;;;;;;10.03;64.85;99527.93;1756778;80;21063;-69
2021/04/23 08:06:59;;;;;;;9.65;3.67;;;;;;;10.08;63.40;99523.13;1748159;82;21593;-70
2021/04/23 08:09:29;;;;;;;10.55;4.37;;;;;;;10.13;63.46;99524.94;1748109;81;20889;-63
2021/04/23 08:11:59;;;;;;;7.55;4.03;;;;;;;10.27;62.75;99527.63;1748240;80;20944;-63
2021/04/23 08:14:28;;;;;;;11.25;4.10;;;;;;;10.44;63.32;99538.12;1746893;82;21071;-72
2021/04/23 08:16:57;;;;;;;8.13;3.70;;;;;;;10.64;62.29;99530.47;1747627;82;21515;-72
2021/04/23 08:19:25;;;;;;;8.25;4.10;;;;;;;10.73;61.57;99532.69;1747891;80;21181;-73
2021/04/23 08:21:52;;;;;;;6.55;3.35;;;;;;;10.79;60.63;99528.67;1757221;80;21577;-71
2021/04/23 08:24:20;;;;;;;9.33;3.70;;;;;;;10.83;59.71;99531.03;1762347;80;21245;-72
2021/04/23 08:26:48;;;;;;;9.03;3.65;;;;;;;10.73;60.18;99528.00;1765253;80;21161;-72
2021/04/23 08:29:17;;;;;;;8.78;3.83;;;;;;;10.67;60.31;99527.89;1771992;80;21054;-69
2021/04/23 08:31:47;;;;;;;7.42;3.83;;;;;;;10.56;58.99;99524.62;1770299;80;21215;-69
2021/04/23 08:34:16;;;;;;;9.75;3.85;;;;;;;10.43;60.54;99533.75;1774837;80;21100;-69
2021/04/23 08:36:44;;;;;;;9.03;3.87;;;;;;;10.43;59.74;99537.06;1762807;80;21372;-69
2021/04/23 08:39:13;;;;;;;8.28;3.72;;;;;;;10.50;58.12;99531.37;1748084;82;21150;-69
2021/04/23 08:41:42;;;;;;;13.22;4.20;;;;;;;10.57;57.66;99534.47;1748194;82;21590;-68
2021/04/23 08:44:11;;;;;;;7.97;4.00;;;;;;;10.85;57.83;99536.45;1748001;82;21082;-67
2021/04/23 08:46:39;;;;;;;13.13;3.60;;;;;;;11.29;56.28;99541.48;1762457;79;21129;-67
2021/04/23 08:49:07;;;;;;;7.20;4.15;;;;;;;11.66;56.06;99540.61;1776310;80;21191;-68
2021/04/23 08:51:36;;;;;;;7.53;3.85;;;;;;;11.96;53.94;99541.05;1766877;80;21549;-70
2021/04/23 08:54:06;;;;;;;7.37;3.20;;;;;;;12.14;53.27;99532.98;1738669;82;21017;-68
2021/04/23 08:56:34;;;;;;;10.38;3.75;;;;;;;12.36;53.68;99529.22;1761985;81;21000;-70
2021/04/23 08:59:03;;;;;;;13.50;3.90;;;;;;;12.63;51.57;99529.95;1762246;81;21139;-71
2021/04/23 09:01:31;;;;;;;6.80;3.87;;;;;;;12.81;52.12;99535.04;1757326;79;21630;-69
2021/04/23 09:04:00;;;;;;;10.00;3.72;;;;;;;13.07;54.11;99534.92;1761843;81;20972;-68
2021/04/23 09:06:28;;;;;;;7.30;3.33;;;;;;;13.35;50.73;99529.73;1757357;81;21052;-71
2021/04/23 09:09:00;;;;;;;9.38;3.50;;;;;;;13.52;47.62;99541.22;1762123;81;21162;-70
2021/04/23 09:11:42;;;;;;;12.07;3.30;;;;;;;13.65;44.43;99534.64;1762086;81;21241;-71
2021/04/23 09:14:20;;;;;;;7.58;3.08;;;;;;;13.69;44.96;99528.69;1762175;81;20906;-67
2021/04/23 09:16:57;;;;;;;7.33;2.98;;;;;;;13.78;46.00;99523.09;1754119;80;21033;-67
2021/04/23 09:19:33;;;;;;;8.50;3.35;;;;;;;13.78;44.64;99528.05;1711454;83;21130;-70
2021/04/23 09:22:05;;;;;;;9.48;3.70;;;;;;;13.70;44.74;99528.92;1750286;82;21505;-69
2021/04/23 09:24:40;;;;;;;12.37;3.30;;;;;;;13.52;45.22;99537.09;1711646;82;21589;-69
2021/04/23 09:27:17;;;;;;;9.03;3.40;;;;;;;13.44;46.19;99533.81;1749812;80;21303;-68
2021/04/23 09:29:50;;;;;;;11.38;3.20;;;;;;;13.52;44.96;99528.81;1716519;81;21021;-69
2021/04/23 09:32:21;;;;;;;7.67;3.02;;;;;;;13.69;44.19;99514.89;1758480;81;21116;-68
2021/04/23 09:35:06;;;;;;;9.85;2.85;;;;;;;13.90;43.25;99512.09;1756047;81;21132;-69
2021/04/23 09:37:53;;;;;;;8.10;2.98;;;;;;;14.00;43.50;99508.11;1753584;81;21167;-69
2021/04/23 09:40:31;;;;;;;8.83;2.80;;;;;;;14.11;40.81;99511.48;1755915;81;21197;-70
2021/04/23 09:43:03;;;;;;;12.45;3.17;;;;;;;14.27;38.10;99517.75;1755969;81;20910;-69
2021/04/23 09:45:34;;;;;;;6.20;2.30;;;;;;;14.37;40.46;99504.32;1755946;80;21183;-69
2021/04/23 09:48:05;;;;;;;4.33;2.40;;;;;;;14.88;38.55;99503.47;1759897;81;21116;-69
2021/04/23 09:50:38;;;;;;;6.78;3.33;;;;;;;15.30;37.55;99497.66;1758625;80;21206;-69
2021/04/23 09:53:06;;;;;;;;;;;;;;;15.55;35.49;99507.52;1751271;82;21328;-69
2021/04/23 09:55:37;;;;;;;9.80;3.00;;;;;;;15.62;36.64;99509.70;1748868;82;20236;-68
2021/04/23 09:58:08;;;;;;;8.58;3.27;;;;;;;15.48;35.13;99507.31;1749061;82;21537;-69
2021/04/23 10:00:41;;;;;;;8.40;3.10;;;;;;;15.19;35.97;99508.39;1738089;82;21110;-71
2021/04/23 10:03:10;;;;;;;6.03;3.40;;;;;;;15.06;36.93;99502.63;1719127;83;21498;-71
2021/04/23 10:05:43;;;;;;;8.33;2.80;;;;;;;14.92;36.61;99498.06;1727854;81;21360;-70
2021/04/23 10:08:25;;;;;;;9.98;3.42;;;;;;;14.69;36.38;99509.55;1744115;82;21093;-70
2021/04/23 10:10:57;;;;;;;13.28;3.17;;;;;;;14.31;34.55;99504.30;1722677;82;21190;-72
2021/04/23 10:13:31;;;;;;;7.30;3.37;;;;;;;13.79;35.67;99504.83;1719041;83;21151;-72
2021/04/23 10:16:00;;;;;;;9.63;3.25;;;;;;;13.45;36.15;99505.09;1741040;81;21176;-74
2021/04/23 10:18:29;;;;;;;12.20;3.30;;;;;;;13.16;36.54;99503.21;1748924;82;21391;-71
2021/04/23 10:20:59;;;;;;;9.85;3.65;;;;;;;12.86;38.56;99500.98;1741573;82;21173;-72
2021/04/23 10:23:29;;;;;;;12.33;4.80;;;;;;;12.69;39.38;99503.85;1741581;82;21179;-71
2021/04/23 10:25:58;;;;;;;7.90;3.83;;;;;;;12.61;40.45;99509.63;1748824;82;21064;-70
2021/04/23 10:28:27;;;;;;;10.55;3.10;;;;;;;12.58;41.07;99502.03;1748913;80;21223;-72
2021/04/23 10:30:57;;;;;;;11.05;3.62;;;;;;;12.66;41.12;99503.14;1748344;80;21411;-73
2021/04/23 10:33:47;;;;;;;12.68;3.27;;;;;;;12.70;41.34;99502.72;1724250;82;21155;-72
2021/04/23 10:36:16;;;;;;;12.18;4.28;;;;;;;12.75;42.54;99503.31;1662762;86;21533;-72
2021/04/23 10:38:44;;;;;;;8.73;3.50;;;;;;;13.05;41.03;99497.81;1662469;86;21077;-72
2021/04/23 10:41:13;;;;;;;8.83;4.08;;;;;;;13.21;41.26;99501.07;1662675;86;21089;-72
2021/04/23 10:43:55;;;;;;;7.95;3.60;;;;;;;13.32;41.08;99502.02;1644021;86;21228;-72
2021/04/23 10:46:26;;;;;;;10.50;3.90;;;;;;;13.32;42.03;99498.70;1612423;88;21536;-71
2021/04/23 10:49:06;;;;;;;11.80;3.58;;;;;;;13.23;41.94;99509.58;1619152;88;21027;-73
2021/04/23 10:51:34;;;;;;;9.43;4.20;;;;;;;12.97;41.82;99496.72;1606599;87;21228;-70
2021/04/23 10:54:14;;;;;;;9.35;3.87;;;;;;;12.77;43.10;99490.02;1583081;89;21105;-72
2021/04/23 10:56:50;;;;;;;10.80;4.47;;;;;;;12.76;42.87;99495.28;1567510;91;21187;-70
2021/04/23 10:59:26;;;;;;;7.95;4.00;;;;;;;12.81;43.15;99503.93;1596143;89;21232;-68
2021/04/23 11:02:17;;;;;;;10.13;3.70;;;;;;;12.73;42.55;99501.45;1592397;89;21211;-71
2021/04/23 11:05:00;;;;;;;9.00;3.80;;;;;;;12.56;42.96;99499.61;1596805;87;21102;-71
2021/04/23 11:07:30;;;;;;;9.75;4.15;;;;;;;12.39;43.45;99491.41;1605116;87;21203;-70
2021/04/23 11:10:04;;;;;;;10.55;4.20;;;;;;;12.24;44.35;99496.87;1573457;88;21608;-69
2021/04/23 11:12:32;;;;;;;9.95;4.37;;;;;;;12.09;44.13;99497.42;1630603;87;21197;-69
2021/04/23 11:15:15;;;;;;;13.38;4.53;;;;;;;11.90;44.63;99495.02;1607351;89;21204;-68
2021/04/23 11:17:44;;;;;;;12.25;4.80;;;;;;;11.78;45.50;99494.86;1635089;87;21116;-68
2021/04/23 11:20:29;;;;;;;12.45;3.83;;;;;;;11.67;44.80;99496.30;1635057;86;21088;-69
2021/04/23 11:22:58;;;;;;;16.80;4.75;;;;;;;11.52;45.84;99492.68;1634947;87;22127;-68
2021/04/23 11:25:27;;;;;;;15.45;5.60;;;;;;;11.44;44.70;99494.86;1634733;87;21128;-68
2021/04/23 11:28:06;;;;;;;10.88;4.22;;;;;;;11.36;45.65;99492.91;1635053;86;21084;-68
2021/04/23 11:31:00;;;;;;;13.00;4.75;;;;;;;11.29;44.47;99497.51;1634813;86;20974;-66
2021/04/23 11:33:58;;;;;;;10.63;4.55;;;;;;;11.20;45.72;99492.56;1632741;86;21188;-67
2021/04/23 11:36:38;;;;;;;10.75;4.25;;;;;;;11.22;44.84;99499.92;1613565;87;21485;-67
2021/04/23 11:39:11;;;;;;;8.93;4.40;;;;;;;11.27;44.06;99492.09;1612867;87;21170;-68
2021/04/23 11:42:24;;;;;;;11.33;4.58;;;;;;;11.26;42.50;99492.66;1621702;87;21050;-68
2021/04/23 11:45:07;;;;;;;12.73;4.22;;;;;;;11.27;43.91;99485.22;1609935;89;21190;-69
2021/04/23 11:47:48;;;;;;;8.13;4.20;;;;;;;11.37;42.21;99492.59;1596115;89;21222;-69
2021/04/23 11:50:29;;;;;;;11.20;4.37;;;;;;;11.41;42.73;99490.01;1604826;87;21368;-70